createdAt,value
2022-10-06T00:02:12.283Z,87.17
2022-10-06T00:04:39.009Z,90.61
2022-10-06T00:07:05.505Z,91.40
2022-10-06T00:09:31.967Z,92.40
2022-10-06T00:11:59.039Z,92.71
2022-10-06T00:14:25.450Z,93.37
2022-10-06T00:16:51.949Z,93.93
2022-10-06T00:19:18.429Z,93.88
2022-10-06T00:21:45.459Z,94.36
2022-10-06T00:24:12.016Z,94.31
2022-10-06T00:26:38.534Z,94.79
2022-10-06T00:29:05.009Z,95.00
2022-10-06T00:31:31.537Z,95.29
2022-10-06T00:33:58.019Z,95.44
2022-10-06T00:36:24.425Z,95.18
2022-10-06T00:38:50.924Z,94.65
2022-10-06T00:41:18.217Z,94.80
2022-10-06T00:43:56.864Z,94.04
2022-10-06T00:46:34.283Z,93.65
2022-10-06T00:49:10.635Z,93.32
2022-10-06T00:51:40.869Z,93.45
2022-10-06T00:54:07.603Z,92.79
2022-10-06T00:56:34.287Z,92.59
2022-10-06T00:59:01.222Z,92.49
2022-10-06T01:01:30.720Z,91.99
2022-10-06T01:04:04.090Z,91.95
2022-10-06T01:06:41.803Z,92.00
2022-10-06T01:09:08.275Z,92.23
2022-10-06T01:11:37.696Z,92.05
2022-10-06T01:14:04.316Z,92.07
2022-10-06T01:16:34.643Z,91.38
2022-10-06T01:19:03.359Z,91.44
2022-10-06T01:21:37.187Z,90.68
2022-10-06T01:24:04.571Z,90.53
2022-10-06T01:26:33.535Z,89.53
2022-10-06T01:29:00.224Z,90.51
2022-10-06T01:31:27.342Z,90.06
2022-10-06T01:33:55.130Z,90.84
2022-10-06T01:36:21.665Z,90.45
2022-10-06T01:38:48.255Z,90.57
2022-10-06T01:41:14.776Z,89.91
2022-10-06T01:43:41.298Z,90.56
2022-10-06T01:46:07.794Z,90.44
2022-10-06T01:48:36.901Z,90.57
2022-10-06T01:51:03.470Z,89.61
2022-10-06T01:53:30.070Z,89.79
2022-10-06T01:56:00.419Z,89.36
2022-10-06T01:58:27.378Z,88.83
2022-10-06T02:00:54.150Z,88.85
2022-10-06T02:03:20.643Z,88.27
2022-10-06T02:05:47.087Z,87.65
2022-10-06T02:08:13.558Z,88.27
2022-10-06T02:10:40.106Z,87.81
2022-10-06T02:13:06.541Z,87.47
2022-10-06T02:15:33.413Z,87.06
2022-10-06T02:18:00.145Z,87.81
2022-10-06T02:20:26.623Z,87.04
2022-10-06T02:22:53.097Z,87.45
2022-10-06T02:25:19.735Z,87.28
2022-10-06T02:27:46.209Z,88.20
2022-10-06T02:30:14.529Z,87.86
2022-10-06T02:32:42.727Z,87.75
2022-10-06T02:35:12.800Z,88.69
2022-10-06T02:37:41.358Z,88.13
2022-10-06T02:40:08.822Z,88.22
2022-10-06T02:42:37.460Z,88.13
2022-10-06T02:45:06.651Z,88.33
2022-10-06T02:47:34.596Z,89.62
2022-10-06T02:50:02.532Z,89.66
2022-10-06T02:52:34.337Z,88.54
2022-10-06T02:55:04.294Z,88.34
2022-10-06T02:57:31.063Z,89.35
2022-10-06T02:59:57.792Z,89.07
2022-10-06T03:02:24.514Z,89.17
2022-10-06T03:04:51.156Z,88.01
2022-10-06T03:07:17.899Z,88.56
2022-10-06T03:09:44.339Z,88.02
2022-10-06T03:12:10.745Z,88.41
2022-10-06T03:14:37.157Z,88.02
2022-10-06T03:17:03.674Z,88.33
2022-10-06T03:19:30.120Z,87.54
2022-10-06T03:21:56.500Z,87.50
2022-10-06T03:24:22.933Z,88.20
2022-10-06T03:26:49.326Z,88.06
2022-10-06T03:29:16.346Z,87.86
2022-10-06T03:31:43.507Z,87.54
2022-10-06T03:34:10.574Z,88.23
2022-10-06T03:36:37.023Z,87.42
2022-10-06T03:39:04.847Z,87.12
2022-10-06T03:41:33.805Z,86.56
2022-10-06T03:44:00.695Z,86.36
2022-10-06T03:46:30.232Z,86.45
2022-10-06T03:48:57.536Z,85.72
2022-10-06T03:51:27.193Z,85.48
2022-10-06T03:53:54.149Z,84.83
2022-10-06T03:56:29.599Z,85.18
2022-10-06T03:58:59.763Z,84.92
2022-10-06T04:01:43.536Z,84.59
2022-10-06T04:04:11.623Z,84.83
2022-10-06T04:06:40.398Z,85.05
2022-10-06T04:09:14.753Z,84.64
2022-10-06T04:11:43.027Z,84.91
2022-10-06T04:14:11.915Z,84.73
2022-10-06T04:16:41.291Z,84.77
2022-10-06T04:19:12.780Z,84.16
2022-10-06T04:21:41.099Z,83.91
2022-10-06T04:24:08.492Z,83.83
2022-10-06T04:26:37.909Z,83.67
2022-10-06T04:29:04.553Z,83.60
2022-10-06T04:31:33.529Z,83.91
2022-10-06T04:34:01.317Z,83.64
2022-10-06T04:36:33.104Z,83.65
2022-10-06T04:39:02.729Z,83.70
2022-10-06T04:41:32.474Z,83.57
2022-10-06T04:43:59.973Z,83.44
2022-10-06T04:46:44.178Z,83.38
2022-10-06T04:49:18.621Z,83.08
2022-10-06T04:51:46.921Z,83.23
2022-10-06T04:54:13.409Z,83.25
2022-10-06T04:56:39.986Z,83.42
2022-10-06T04:59:06.429Z,83.58
2022-10-06T05:01:35.522Z,83.67
2022-10-06T05:04:03.461Z,83.94
2022-10-06T05:06:35.571Z,84.07
2022-10-06T05:09:05.575Z,84.28
2022-10-06T05:11:32.692Z,84.56
2022-10-06T05:13:59.849Z,84.79
2022-10-06T05:16:29.266Z,85.29
2022-10-06T05:18:56.022Z,85.36
2022-10-06T05:21:28.567Z,85.45
2022-10-06T05:23:55.097Z,84.94
2022-10-06T05:26:24.115Z,85.36
2022-10-06T05:28:50.807Z,85.60
2022-10-06T05:31:27.124Z,85.68
2022-10-06T05:33:54.781Z,85.83
2022-10-06T05:36:28.220Z,85.51
2022-10-06T05:38:56.151Z,85.84
2022-10-06T05:41:28.825Z,85.90
2022-10-06T05:43:55.692Z,85.95
2022-10-06T05:46:28.395Z,85.80
2022-10-06T05:48:57.645Z,85.94
2022-10-06T05:51:31.123Z,85.73
2022-10-06T05:54:01.361Z,85.44
2022-10-06T05:56:33.753Z,85.27
2022-10-06T05:59:01.122Z,85.27
2022-10-06T06:01:28.657Z,85.41
2022-10-06T06:04:00.188Z,85.28
2022-10-06T06:06:28.097Z,84.76
2022-10-06T06:08:58.910Z,84.79
2022-10-06T06:11:27.700Z,84.44
2022-10-06T06:13:59.218Z,84.46
2022-10-06T06:16:27.008Z,84.34
2022-10-06T06:18:53.528Z,84.17
2022-10-06T06:21:20.157Z,83.96
2022-10-06T06:23:48.527Z,83.39
2022-10-06T06:26:23.577Z,82.32
2022-10-06T06:28:54.518Z,82.11
2022-10-06T06:31:29.780Z,81.37
2022-10-06T06:33:58.584Z,80.73
2022-10-06T06:36:36.823Z,79.63
2022-10-06T06:39:06.046Z,79.13
2022-10-06T06:41:35.273Z,78.78
2022-10-06T06:44:01.730Z,78.07
2022-10-06T06:46:31.985Z,77.78
2022-10-06T06:49:04.321Z,76.53
2022-10-06T06:51:33.212Z,76.32
2022-10-06T06:54:02.248Z,75.85
2022-10-06T06:56:34.814Z,76.09
2022-10-06T06:59:13.193Z,75.30
2022-10-06T07:01:47.391Z,74.93
2022-10-06T07:04:16.562Z,74.11
2022-10-06T07:06:56.947Z,73.76
2022-10-06T07:09:25.966Z,72.90
2022-10-06T07:11:52.493Z,72.82
2022-10-06T07:14:18.889Z,72.70
2022-10-06T07:17:03.684Z,72.69
2022-10-06T07:19:48.436Z,71.97
2022-10-06T07:22:36.974Z,71.36
2022-10-06T07:25:11.783Z,70.34
2022-10-06T07:27:46.477Z,70.06
2022-10-06T07:30:18.960Z,69.23
2022-10-06T07:32:47.159Z,69.16
2022-10-06T07:35:13.793Z,67.33
2022-10-06T07:37:40.657Z,68.16
2022-10-06T07:40:08.837Z,66.93
2022-10-06T07:42:48.158Z,66.50
2022-10-06T07:45:45.002Z,66.27
2022-10-06T07:48:20.086Z,64.71
2022-10-06T07:50:49.148Z,66.41
2022-10-06T07:53:17.724Z,65.93
2022-10-06T07:55:46.662Z,65.95
2022-10-06T07:58:18.701Z,62.95
2022-10-06T08:00:46.792Z,63.64
2022-10-06T08:03:18.062Z,64.39
2022-10-06T08:05:49.766Z,63.60
2022-10-06T08:08:16.673Z,63.71
2022-10-06T08:10:44.208Z,63.97
2022-10-06T08:13:10.711Z,60.97
2022-10-06T08:15:37.316Z,62.98
2022-10-06T08:18:12.266Z,63.45
2022-10-06T08:20:48.182Z,61.55
2022-10-06T08:23:14.709Z,59.79
2022-10-06T08:25:44.471Z,60.98
2022-10-06T08:28:11.374Z,61.45
2022-10-06T08:30:38.222Z,59.21
2022-10-06T08:33:05.733Z,58.58
2022-10-06T08:35:33.536Z,57.98
2022-10-06T08:37:59.992Z,56.66
2022-10-06T08:40:28.573Z,56.65
2022-10-06T08:43:01.216Z,52.75
2022-10-06T08:45:38.726Z,53.55
2022-10-06T08:48:11.253Z,52.77
2022-10-06T08:51:01.006Z,52.99
2022-10-06T08:53:55.022Z,52.14
2022-10-06T08:56:27.547Z,54.85
2022-10-06T08:58:57.384Z,54.35
2022-10-06T09:01:33.222Z,50.13
2022-10-06T09:04:03.584Z,49.94
2022-10-06T09:06:49.108Z,48.83
2022-10-06T09:09:32.876Z,48.86
2022-10-06T09:12:06.747Z,48.01
2022-10-06T09:14:53.757Z,47.00
2022-10-06T09:17:30.658Z,46.54
2022-10-06T09:20:11.004Z,46.18
2022-10-06T09:22:37.949Z,48.59
2022-10-06T09:25:21.152Z,44.79
2022-10-06T09:27:53.488Z,50.13
2022-10-06T09:30:20.216Z,48.60
2022-10-06T09:32:50.869Z,47.13
2022-10-06T09:35:25.590Z,46.49
2022-10-06T09:37:57.088Z,45.26
2022-10-06T09:40:36.440Z,45.81
2022-10-06T09:43:16.528Z,47.58
2022-10-06T09:45:42.998Z,47.72
2022-10-06T09:48:23.916Z,46.72
2022-10-06T09:51:14.904Z,46.19
2022-10-06T09:53:42.546Z,44.70
2022-10-06T09:56:20.670Z,43.11
2022-10-06T09:58:56.509Z,42.59
2022-10-06T10:01:26.589Z,45.31
2022-10-06T10:04:20.208Z,42.78
2022-10-06T10:06:48.044Z,40.13
2022-10-06T10:09:21.591Z,40.78
2022-10-06T10:12:24.463Z,44.47
2022-10-06T10:14:52.019Z,46.07
2022-10-06T10:17:39.581Z,43.98
2022-10-06T10:20:28.565Z,43.43
2022-10-06T10:23:05.624Z,40.94
2022-10-06T10:25:50.729Z,43.05
2022-10-06T10:28:33.981Z,40.30
2022-10-06T10:31:16.801Z,41.34
2022-10-06T10:33:59.510Z,42.21
2022-10-06T10:36:46.024Z,39.92
2022-10-06T10:39:28.069Z,39.83
2022-10-06T10:41:57.865Z,43.21
2022-10-06T10:44:29.691Z,41.05
2022-10-06T10:47:05.849Z,40.04
2022-10-06T10:49:33.669Z,40.50
2022-10-06T10:52:09.094Z,42.49
2022-10-06T10:54:57.388Z,41.66
2022-10-06T10:57:28.788Z,42.90
2022-10-06T11:00:01.335Z,43.08
2022-10-06T11:02:28.720Z,42.96
2022-10-06T11:05:04.255Z,41.96
2022-10-06T11:08:02.099Z,40.71
2022-10-06T11:10:35.049Z,39.75
2022-10-06T11:13:11.034Z,41.52
2022-10-06T11:15:53.316Z,41.37
2022-10-06T11:19:02.535Z,41.64
2022-10-06T11:21:50.670Z,40.27
2022-10-06T11:24:24.882Z,41.06
2022-10-06T11:27:28.490Z,42.08
2022-10-06T11:30:07.210Z,43.41
2022-10-06T11:33:01.967Z,43.92
2022-10-06T11:35:39.255Z,42.90
2022-10-06T11:38:26.934Z,42.89
2022-10-06T11:41:17.773Z,42.39
2022-10-06T11:44:00.551Z,42.30
2022-10-06T11:46:40.090Z,44.04
2022-10-06T11:49:29.915Z,43.38
2022-10-06T11:51:59.690Z,43.48
2022-10-06T11:54:39.551Z,42.96
2022-10-06T11:57:30.206Z,42.79
2022-10-06T11:59:57.182Z,43.01
2022-10-06T12:02:32.937Z,42.64
2022-10-06T12:05:55.422Z,42.06
2022-10-06T12:08:01.256Z,41.35
2022-10-06T12:10:27.649Z,41.66
2022-10-06T12:13:21.293Z,41.06
2022-10-06T12:19:18.728Z,40.47
2022-10-06T12:22:12.454Z,40.82
2022-10-06T12:25:06.506Z,41.58
2022-10-06T12:28:01.248Z,41.23
2022-10-06T12:30:33.694Z,41.15
2022-10-06T12:33:03.576Z,43.25
2022-10-06T12:35:32.914Z,41.94
2022-10-06T12:38:06.733Z,41.55
2022-10-06T12:40:42.775Z,42.70
2022-10-06T12:43:14.928Z,42.36
2022-10-06T12:46:02.126Z,41.48
2022-10-06T12:48:43.850Z,43.41
2022-10-06T12:51:13.228Z,43.38
2022-10-06T12:54:02.492Z,41.42
2022-10-06T12:56:34.073Z,42.07
2022-10-06T12:59:27.760Z,41.42
2022-10-06T13:02:00.282Z,40.74
2022-10-06T13:04:34.093Z,41.22
2022-10-06T13:07:08.622Z,40.67
2022-10-06T13:09:35.762Z,40.57
2022-10-06T13:12:20.497Z,40.11
2022-10-06T13:14:48.694Z,40.16
2022-10-06T13:17:15.329Z,40.27
2022-10-06T13:19:46.590Z,40.79
2022-10-06T13:22:14.357Z,40.54
2022-10-06T13:24:40.848Z,40.33
2022-10-06T13:27:17.595Z,38.91
2022-10-06T13:29:44.048Z,39.04
2022-10-06T13:32:17.377Z,39.12
2022-10-06T13:34:44.955Z,39.99
2022-10-06T13:37:15.352Z,40.46
2022-10-06T13:39:42.050Z,40.00
2022-10-06T13:42:17.826Z,39.70
2022-10-06T13:44:56.204Z,39.61
2022-10-06T13:47:25.006Z,39.96
2022-10-06T13:50:17.348Z,38.08
2022-10-06T13:52:47.995Z,37.32
2022-10-06T13:55:25.538Z,37.76
2022-10-06T13:58:03.432Z,38.55
2022-10-06T14:01:01.099Z,38.69
2022-10-06T14:06:16.048Z,39.04
2022-10-06T14:08:54.900Z,39.05
2022-10-06T14:11:24.739Z,39.47
2022-10-06T14:13:55.949Z,38.21
2022-10-06T14:16:25.326Z,39.90
2022-10-06T14:19:30.804Z,39.68
2022-10-06T14:21:57.339Z,39.34
2022-10-06T14:24:28.928Z,38.39
2022-10-06T14:27:02.490Z,38.57
2022-10-06T14:29:29.155Z,38.25
2022-10-06T14:31:55.606Z,37.52
2022-10-06T14:34:22.649Z,38.10
2022-10-06T14:36:55.211Z,38.14
2022-10-06T14:39:21.997Z,38.82
2022-10-06T14:41:48.485Z,39.90
2022-10-06T14:44:15.962Z,38.06
2022-10-06T14:46:46.977Z,37.55
2022-10-06T14:49:13.985Z,39.07
2022-10-06T14:51:42.182Z,37.65
2022-10-06T14:54:10.780Z,37.09
2022-10-06T14:56:39.242Z,38.31
2022-10-06T14:59:08.599Z,35.54
2022-10-06T15:01:37.564Z,36.51
2022-10-06T15:04:06.888Z,36.03
2022-10-06T15:06:51.796Z,36.77
2022-10-06T15:09:18.397Z,37.06
2022-10-06T15:11:45.104Z,36.83
2022-10-06T15:14:11.683Z,35.63
2022-10-06T15:16:44.378Z,37.53
2022-10-06T15:19:12.461Z,38.04
2022-10-06T15:21:40.749Z,39.06
2022-10-06T15:24:11.617Z,39.75
2022-10-06T15:26:56.517Z,39.62
2022-10-06T15:29:23.000Z,39.93
2022-10-06T15:31:53.004Z,39.93
2022-10-06T15:34:24.381Z,39.95
2022-10-06T15:36:52.610Z,41.00
2022-10-06T15:39:21.542Z,40.41
2022-10-06T15:41:48.714Z,41.21
2022-10-06T15:44:15.581Z,40.90
2022-10-06T15:46:44.795Z,41.68
2022-10-06T15:49:13.261Z,41.95
2022-10-06T15:51:50.862Z,42.16
2022-10-06T15:54:23.607Z,41.45
2022-10-06T15:56:52.585Z,43.04
2022-10-06T15:59:22.549Z,43.08
2022-10-06T16:01:49.657Z,43.52
2022-10-06T16:04:26.968Z,43.55
2022-10-06T16:06:55.914Z,43.74
2022-10-06T16:09:28.594Z,43.99
2022-10-06T16:11:56.859Z,44.03
2022-10-06T16:14:24.339Z,44.11
2022-10-06T16:16:51.305Z,44.37
2022-10-06T16:19:19.409Z,44.96
2022-10-06T16:21:49.504Z,45.35
2022-10-06T16:24:19.835Z,45.94
2022-10-06T16:26:47.398Z,45.94
2022-10-06T16:29:15.084Z,46.36
2022-10-06T16:31:42.498Z,46.27
2022-10-06T16:34:09.913Z,47.19
2022-10-06T16:36:39.170Z,46.87
2022-10-06T16:39:07.537Z,48.07
2022-10-06T16:41:34.380Z,47.48
2022-10-06T16:44:01.011Z,49.11
2022-10-06T16:46:29.731Z,48.41
2022-10-06T16:48:58.194Z,48.35
2022-10-06T16:51:25.761Z,48.73
2022-10-06T16:53:54.704Z,48.76
2022-10-06T16:56:23.525Z,49.87
2022-10-06T16:58:53.900Z,50.66
2022-10-06T17:01:22.970Z,49.53
2022-10-06T17:03:58.310Z,51.15
2022-10-06T17:06:24.970Z,49.94
2022-10-06T17:08:53.394Z,50.60
2022-10-06T17:11:21.919Z,51.18
2022-10-06T17:13:49.302Z,52.59
2022-10-06T17:16:19.489Z,54.32
2022-10-06T17:18:50.958Z,54.20
2022-10-06T17:21:43.399Z,54.59
2022-10-06T17:24:05.657Z,55.22
2022-10-06T17:26:35.516Z,58.28
2022-10-06T17:29:05.937Z,58.37
2022-10-06T17:31:35.436Z,57.62
2022-10-06T17:34:04.150Z,57.03
2022-10-06T17:36:30.850Z,57.84
2022-10-06T17:39:01.375Z,58.55
2022-10-06T17:41:31.341Z,59.50
2022-10-06T17:44:03.805Z,59.95
2022-10-06T17:46:37.615Z,60.50
2022-10-06T17:49:09.918Z,60.14
2022-10-06T17:51:40.522Z,61.26
2022-10-06T17:54:12.311Z,61.51
2022-10-06T17:56:39.608Z,61.41
2022-10-06T17:59:11.445Z,61.53
2022-10-06T18:01:38.008Z,61.68
2022-10-06T18:04:06.558Z,61.97
2022-10-06T18:06:34.950Z,61.48
2022-10-06T18:09:04.331Z,62.13
2022-10-06T18:11:42.012Z,62.13
2022-10-06T18:14:13.671Z,62.48
2022-10-06T18:16:55.647Z,64.85
2022-10-06T18:19:26.418Z,64.07
2022-10-06T18:21:56.388Z,65.88
2022-10-06T18:24:25.430Z,66.95
2022-10-06T18:26:53.628Z,65.72
2022-10-06T18:29:22.868Z,66.95
2022-10-06T18:31:51.470Z,67.50
2022-10-06T18:36:11.006Z,70.34
2022-10-06T18:37:04.787Z,67.38
2022-10-06T18:39:32.020Z,66.88
2022-10-06T18:42:02.433Z,66.37
2022-10-06T18:44:48.309Z,65.68
2022-10-06T18:47:33.561Z,65.49
2022-10-06T18:50:00.068Z,65.90
2022-10-06T18:52:26.537Z,66.99
2022-10-06T18:54:52.980Z,67.06
2022-10-06T18:57:22.629Z,70.58
2022-10-06T18:59:51.692Z,69.38
2022-10-06T19:02:18.264Z,72.18
2022-10-06T19:04:44.852Z,71.75
2022-10-06T19:07:11.299Z,71.93
2022-10-06T19:09:39.708Z,70.40
2022-10-06T19:12:08.019Z,70.40
2022-10-06T19:14:37.672Z,69.82
2022-10-06T19:17:09.094Z,70.59
2022-10-06T19:19:35.548Z,73.74
2022-10-06T19:22:04.557Z,75.11
2022-10-06T19:24:35.192Z,73.05
2022-10-06T19:27:03.711Z,71.43
2022-10-06T19:29:36.627Z,71.30
2022-10-06T19:32:05.194Z,71.40
2022-10-06T19:34:35.223Z,73.26
2022-10-06T19:37:01.684Z,75.11
2022-10-06T19:39:35.085Z,72.44
2022-10-06T19:42:20.391Z,71.10
2022-10-06T19:44:46.872Z,71.33
2022-10-06T19:47:15.078Z,71.45
2022-10-06T19:49:42.399Z,71.37
2022-10-06T19:52:10.575Z,71.24
2022-10-06T19:54:38.610Z,71.05
2022-10-06T19:57:05.910Z,71.05
2022-10-06T19:59:32.982Z,70.63
2022-10-06T20:01:59.515Z,70.71
2022-10-06T20:04:26.080Z,71.09
2022-10-06T20:06:52.738Z,71.57
2022-10-06T20:09:21.641Z,72.10
2022-10-06T20:11:49.516Z,72.01
2022-10-06T20:14:21.759Z,71.84
2022-10-06T20:16:50.693Z,71.12
2022-10-06T20:19:18.447Z,72.31
2022-10-06T20:21:45.434Z,72.20
2022-10-06T20:24:18.173Z,73.14
2022-10-06T20:26:46.287Z,72.41
2022-10-06T20:29:14.256Z,72.10
2022-10-06T20:31:48.507Z,73.01
2022-10-06T20:34:21.319Z,73.57
2022-10-06T20:36:51.786Z,71.95
2022-10-06T20:39:40.815Z,73.28
2022-10-06T20:42:12.231Z,75.65
2022-10-06T20:44:41.929Z,73.56
2022-10-06T20:47:08.955Z,73.46
2022-10-06T20:49:35.805Z,73.17
2022-10-06T20:52:03.476Z,73.65
2022-10-06T20:54:34.738Z,72.56
2022-10-06T20:57:05.221Z,73.43
2022-10-06T20:59:35.168Z,74.50
2022-10-06T21:02:02.420Z,74.32
2022-10-06T21:04:29.210Z,74.56
2022-10-06T21:06:55.806Z,74.20
2022-10-06T21:09:24.207Z,73.94
2022-10-06T21:11:50.704Z,74.12
2022-10-06T21:14:17.686Z,73.43
2022-10-06T21:16:46.097Z,73.82
2022-10-06T21:19:17.850Z,75.22
2022-10-06T21:21:49.769Z,74.77
2022-10-06T21:24:16.563Z,74.03
2022-10-06T21:26:43.067Z,74.60
2022-10-06T21:29:12.821Z,74.56
2022-10-06T21:31:39.605Z,74.57
2022-10-06T21:34:06.230Z,74.26
2022-10-06T21:36:32.795Z,74.40
2022-10-06T21:39:01.390Z,75.38
2022-10-06T21:41:36.098Z,75.11
2022-10-06T21:44:05.496Z,75.41
2022-10-06T21:46:33.546Z,75.45
2022-10-06T21:49:01.514Z,75.50
2022-10-06T21:51:30.064Z,75.68
2022-10-06T21:53:57.631Z,75.58
2022-10-06T21:56:26.126Z,76.30
2022-10-06T21:58:54.292Z,75.72
2022-10-06T22:01:26.399Z,75.35
2022-10-06T22:03:53.703Z,76.83
2022-10-06T22:06:20.646Z,79.36
2022-10-06T22:08:48.408Z,76.49
2022-10-06T22:11:21.044Z,76.63
2022-10-06T22:13:50.856Z,76.18
2022-10-06T22:16:20.171Z,79.79
2022-10-06T22:18:47.557Z,75.68
2022-10-06T22:21:28.870Z,76.68
2022-10-06T22:24:21.911Z,76.76
2022-10-06T22:26:49.154Z,75.61
2022-10-06T22:29:17.607Z,75.81
2022-10-06T22:31:45.910Z,75.64
2022-10-06T22:34:15.382Z,75.97
2022-10-06T22:36:41.927Z,75.75
2022-10-06T22:39:08.452Z,76.12
2022-10-06T22:41:34.885Z,76.08
2022-10-06T22:44:01.425Z,76.04
2022-10-06T22:46:31.184Z,75.42
2022-10-06T22:48:58.225Z,76.73
2022-10-06T22:51:25.158Z,76.60
2022-10-06T22:53:58.169Z,77.19
2022-10-06T22:56:29.323Z,76.24
2022-10-06T22:58:59.395Z,76.67
2022-10-06T23:01:26.788Z,82.05
2022-10-06T23:03:57.040Z,78.89
2022-10-06T23:06:24.500Z,82.54
2022-10-06T23:08:50.954Z,81.90
2022-10-06T23:11:20.036Z,81.06
2022-10-06T23:13:46.600Z,80.67
2022-10-06T23:16:15.717Z,82.50
2022-10-06T23:18:44.168Z,81.83
2022-10-06T23:21:18.813Z,81.61
2022-10-06T23:23:46.289Z,81.13
2022-10-06T23:26:14.952Z,81.56
2022-10-06T23:28:42.473Z,79.52
2022-10-06T23:31:10.669Z,79.12
2022-10-06T23:33:37.825Z,79.41
2022-10-06T23:36:07.226Z,78.89
2022-10-06T23:38:34.919Z,79.83
2022-10-06T23:41:01.572Z,80.45
2022-10-06T23:43:28.100Z,77.60
2022-10-06T23:45:54.859Z,76.69
2022-10-06T23:48:21.328Z,76.71
2022-10-06T23:51:05.981Z,78.71
2022-10-06T23:53:33.347Z,76.67
2022-10-06T23:55:59.845Z,76.35
2022-10-06T23:58:26.998Z,76.59
